Atlanta, GA

1:01 AM EST on March 02, 2015 (GMT -0500)
Heatherwood Sub. | Change Station
CLOSE
Current Station
Personal Weather Station
Location: Riverdale, GA
Elevation: 975 ft
Nearby Weather Stations

Elev 975 ft 33.60 °N, 84.43 °W | Updated 8 seconds ago

Overcast
Overcast
44.3 °F
Feels Like 44 °F
N
0.0
Wind Variable Wind from South
Gusts 0.0 mph

Today
High -- | Low -- °F
--% Chance of Precip.
Yesterday
High -- | Low -- °F
Precip. -- in
7:05 AM 6:34 PM
Waxing Gibbous, 89% visible
Pressure 30.35 in
Visibility 1.5 miles
Clouds Overcast 500 ft
Windchill 44 °F
Dew Point 43 °F
Humidity 95%
Rainfall 0.00 in
Snow Depth Not available.
UV 0.0 out of 12
Pollen 8.00 out of 12
Air Quality Not available.
Flu Activity Not available.
METAR KATL 020552Z 00000KT 1 1/2SM BR OVC005 08/06 A3033 RMK AO2 SFC VIS 3 SLP277 CIG 004V006 T00780061 10078 20072 58011

More Conditions Fewer Conditions

Pressure 30.35 in
Visibility 1.5 miles
Clouds Overcast 500 ft
Windchill 44 °F
Dew Point 43 °F
Humidity 95%
Rainfall 0.00 in
Snow Depth Not available.
UV 0.0 out of 12
Pollen 8.00 out of 12
Air Quality Not available.
Flu Activity Not available.
METAR KATL 020552Z 00000KT 1 1/2SM BR OVC005 08/06 A3033 RMK AO2 SFC VIS 3 SLP277 CIG 004V006 T00780061 10078 20072 58011

More Conditions Fewer Conditions

10-Day Weather Forecast

Almanac

Astronomy

Mar. 02, 2015 Rise Set
Actual Time
Civil Twilight
Nautical Twilight
Astronomical Twilight
Moon
Length of Visible Light
Length of Day
Tomorrow will be .
, % of the Moon is Illuminated

Today's Extremes

State Highs State Lows

Community

WunderPhotos

Upload Photos

1,801,738 photos uploaded!

WunderBlogs® & News

Nearby

Air Quality

  Air Quality AQ Index Pollutant
Not available.

Snow Depth

Station Depth Elevation

Earthquake Activity

City Distance Mag. Time & Date
Minimum magnitude displayed is 2.5.

Coastal Water Temperatures

Place Temperature

Nearby Weather Stations